Time,TemperatureF,DewpointF,PressureIn,WindDirection,WindDirectionDegrees,WindSpeedMPH,WindSpeedGustMPH,Humidity,HourlyPrecipIn,Conditions,Clouds,dailyrainin,SoftwareType,DateUTC
2013-01-18 00:13:00,31.3,26.5,30.15,South,180,3.2,-999.0,82,-99.99,,,0.00,Acu-Link.com,2013-01-18 06:13:00,
2013-01-18 00:28:00,32.9,26.5,30.14,SSW,202,0.0,-999.0,77,-99.99,,,0.00,Acu-Link.com,2013-01-18 06:28:00,
2013-01-18 00:43:00,34.0,27.2,30.14,South,180,3.2,-999.0,76,-99.99,,,0.00,Acu-Link.com,2013-01-18 06:43:00,
2013-01-18 00:59:00,34.3,27.2,30.14,South,180,3.7,-999.0,75,-99.99,,,0.00,Acu-Link.com,2013-01-18 06:59:00,
2013-01-18 01:14:00,34.0,26.9,30.13,South,180,2.7,-999.0,75,-99.99,,,0.00,Acu-Link.com,2013-01-18 07:14:00,
2013-01-18 01:29:00,32.9,26.5,30.13,South,180,1.7,-999.0,77,-99.99,,,0.00,Acu-Link.com,2013-01-18 07:29:00,
2013-01-18 01:45:00,32.7,26.3,30.13,South,180,2.2,-999.0,77,-99.99,,,0.00,Acu-Link.com,2013-01-18 07:45:00,
2013-01-18 02:00:00,31.8,25.7,30.13,SSW,202,3.7,-999.0,78,-99.99,,,0.00,Acu-Link.com,2013-01-18 08:00:00,
2013-01-18 02:15:00,32.0,25.9,30.12,SW,225,4.2,-999.0,78,-99.99,,,0.00,Acu-Link.com,2013-01-18 08:15:00,
2013-01-18 02:31:00,33.3,26.2,30.11,WSW,247,4.7,-999.0,75,-99.99,,,0.00,Acu-Link.com,2013-01-18 08:31:00,
2013-01-18 02:46:00,34.0,26.3,30.12,WSW,247,5.8,-999.0,73,-99.99,,,0.00,Acu-Link.com,2013-01-18 08:46:00,
2013-01-18 03:01:00,33.6,25.9,30.11,South,180,4.7,-999.0,73,-99.99,,,0.00,Acu-Link.com,2013-01-18 09:01:00,
2013-01-18 03:16:00,32.5,25.8,30.10,SE,135,6.3,-999.0,76,-99.99,,,0.00,Acu-Link.com,2013-01-18 09:16:00,
2013-01-18 03:32:00,31.6,25.2,30.08,SSW,202,4.2,-999.0,77,-99.99,,,0.00,Acu-Link.com,2013-01-18 09:32:00,
2013-01-18 03:47:00,31.6,25.2,30.07,SSW,202,4.2,-999.0,77,-99.99,,,0.00,Acu-Link.com,2013-01-18 09:47:00,
2013-01-18 04:02:00,31.5,25.4,30.06,SSW,202,3.2,-999.0,78,-99.99,,,0.00,Acu-Link.com,2013-01-18 10:02:00,
2013-01-18 04:17:00,31.6,25.5,30.06,SSW,202,4.2,-999.0,78,-99.99,,,0.00,Acu-Link.com,2013-01-18 10:17:00,
2013-01-18 04:33:00,32.0,25.6,30.04,SSW,202,3.7,-999.0,77,-99.99,,,0.00,Acu-Link.com,2013-01-18 10:33:00,
2013-01-18 04:48:00,32.5,26.1,30.03,WSW,247,6.3,-999.0,77,-99.99,,,0.00,Acu-Link.com,2013-01-18 10:48:00,
2013-01-18 05:03:00,32.9,26.2,30.02,SW,225,4.7,-999.0,76,-99.99,,,0.00,Acu-Link.com,2013-01-18 11:03:00,
2013-01-18 05:19:00,32.5,25.8,30.01,WSW,247,8.9,-999.0,76,-99.99,,,0.00,Acu-Link.com,2013-01-18 11:19:00,
2013-01-18 05:34:00,32.4,26.0,29.99,WSW,247,4.7,-999.0,77,-99.99,,,0.00,Acu-Link.com,2013-01-18 11:34:00,
2013-01-18 05:49:00,32.5,26.1,29.98,SW,225,7.8,-999.0,77,-99.99,,,0.00,Acu-Link.com,2013-01-18 11:49:00,
2013-01-18 06:04:00,32.5,25.8,29.97,SSW,202,8.3,-999.0,76,-99.99,,,0.00,Acu-Link.com,2013-01-18 12:04:00,
2013-01-18 06:19:00,32.2,25.8,29.98,SSW,202,7.8,-999.0,77,-99.99,,,0.00,Acu-Link.com,2013-01-18 12:19:00,
2013-01-18 06:35:00,32.4,26.0,29.97,SSW,202,6.8,-999.0,77,-99.99,,,0.00,Acu-Link.com,2013-01-18 12:35:00,
2013-01-18 06:50:00,31.8,25.4,29.97,South,180,4.7,-999.0,77,-99.99,,,0.00,Acu-Link.com,2013-01-18 12:50:00,
2013-01-18 07:05:00,31.5,25.4,29.96,SSW,202,4.7,-999.0,78,-99.99,,,0.00,Acu-Link.com,2013-01-18 13:05:00,
2013-01-18 07:20:00,31.1,25.4,29.95,SW,225,5.3,-999.0,79,-99.99,,,0.00,Acu-Link.com,2013-01-18 13:20:00,
2013-01-18 07:36:00,31.1,25.4,29.94,South,180,7.8,-999.0,79,-99.99,,,0.00,Acu-Link.com,2013-01-18 13:36:00,
2013-01-18 07:51:00,30.9,25.2,29.94,SSW,202,6.8,-999.0,79,-99.99,,,0.00,Acu-Link.com,2013-01-18 13:51:00,
2013-01-18 08:06:00,30.9,25.2,29.94,WSW,247,8.9,-999.0,79,-99.99,,,0.00,Acu-Link.com,2013-01-18 14:06:00,
2013-01-18 08:21:00,30.7,25.0,29.95,South,180,2.2,-999.0,79,-99.99,,,0.00,Acu-Link.com,2013-01-18 14:21:00,
2013-01-18 08:37:00,30.9,25.2,29.96,SSW,202,5.8,-999.0,79,-99.99,,,0.00,Acu-Link.com,2013-01-18 14:37:00,
2013-01-18 08:52:00,32.0,25.6,29.95,SW,225,4.7,-999.0,77,-99.99,,,0.00,Acu-Link.com,2013-01-18 14:52:00,
2013-01-18 09:07:00,32.5,25.8,29.95,South,180,8.3,-999.0,76,-99.99,,,0.00,Acu-Link.com,2013-01-18 15:07:00,
2013-01-18 09:22:00,33.8,26.4,29.94,SSW,202,3.7,-999.0,74,-99.99,,,0.00,Acu-Link.com,2013-01-18 15:22:00,
2013-01-18 09:38:00,34.9,26.8,29.95,South,180,5.3,-999.0,72,-99.99,,,0.00,Acu-Link.com,2013-01-18 15:38:00,
2013-01-18 09:53:00,36.0,27.5,29.95,West,270,5.8,-999.0,71,-99.99,,,0.00,Acu-Link.com,2013-01-18 15:53:00,
2013-01-18 10:08:00,36.3,27.5,29.95,SW,225,7.3,-999.0,70,-99.99,,,0.00,Acu-Link.com,2013-01-18 16:08:00,
2013-01-18 10:24:00,37.4,27.8,29.94,SW,225,5.3,-999.0,68,-99.99,,,0.00,Acu-Link.com,2013-01-18 16:24:00,
2013-01-18 10:39:00,38.5,28.1,29.94,SSW,202,5.8,-999.0,66,-99.99,,,0.00,Acu-Link.com,2013-01-18 16:39:00,
2013-01-18 10:55:00,39.4,28.3,29.93,West,270,4.2,-999.0,64,-99.99,,,0.00,Acu-Link.com,2013-01-18 16:55:00,
2013-01-18 11:10:00,40.1,28.5,29.93,South,180,5.3,-999.0,63,-99.99,,,0.00,Acu-Link.com,2013-01-18 17:10:00,
2013-01-18 11:25:00,41.0,29.4,29.92,SW,225,3.7,-999.0,63,-99.99,,,0.00,Acu-Link.com,2013-01-18 17:25:00,
2013-01-18 11:41:00,42.3,29.4,29.91,West,270,6.3,-999.0,60,-99.99,,,0.00,Acu-Link.com,2013-01-18 17:41:00,
2013-01-18 11:56:00,43.0,30.5,29.90,SW,225,2.7,-999.0,61,-99.99,,,0.00,Acu-Link.com,2013-01-18 17:56:00,
2013-01-18 12:11:00,43.9,30.5,29.90,SSW,202,5.3,-999.0,59,-99.99,,,0.00,Acu-Link.com,2013-01-18 18:11:00,
2013-01-18 12:26:00,44.6,30.7,29.89,SSW,202,3.7,-999.0,58,-99.99,,,0.00,Acu-Link.com,2013-01-18 18:26:00,
2013-01-18 12:42:00,45.9,32.0,29.89,SSW,202,3.7,-999.0,58,-99.99,,,0.00,Acu-Link.com,2013-01-18 18:42:00,
2013-01-18 12:57:00,46.9,32.0,29.88,WSW,247,4.7,-999.0,56,-99.99,,,0.00,Acu-Link.com,2013-01-18 18:57:00,
2013-01-18 13:12:00,47.8,32.4,29.88,WSW,247,2.7,-999.0,55,-99.99,,,0.00,Acu-Link.com,2013-01-18 19:12:00,
2013-01-18 13:27:00,48.2,32.8,29.88,South,180,4.2,-999.0,55,-99.99,,,0.00,Acu-Link.com,2013-01-18 19:27:00,
2013-01-18 13:43:00,49.3,33.4,29.87,South,180,4.7,-999.0,54,-99.99,,,0.00,Acu-Link.com,2013-01-18 19:43:00,
2013-01-18 13:58:00,49.5,33.1,29.88,SSW,202,6.3,-999.0,53,-99.99,,,0.00,Acu-Link.com,2013-01-18 19:58:00,
2013-01-18 14:13:00,50.0,33.1,29.87,West,270,4.7,-999.0,52,-99.99,,,0.00,Acu-Link.com,2013-01-18 20:13:00,
2013-01-18 14:28:00,51.1,34.1,29.87,West,270,5.3,-999.0,52,-99.99,,,0.00,Acu-Link.com,2013-01-18 20:28:00,
2013-01-18 14:44:00,51.6,33.6,29.86,SSW,202,5.3,-999.0,50,-99.99,,,0.00,Acu-Link.com,2013-01-18 20:44:00,
2013-01-18 14:59:00,51.8,34.3,29.86,WSW,247,5.3,-999.0,51,-99.99,,,0.00,Acu-Link.com,2013-01-18 20:59:00,
2013-01-18 15:14:00,52.2,34.6,29.85,SW,225,4.7,-999.0,51,-99.99,,,0.00,Acu-Link.com,2013-01-18 21:14:00,
2013-01-18 15:29:00,50.4,34.4,29.84,SSW,202,7.8,-999.0,54,-99.99,,,0.00,Acu-Link.com,2013-01-18 21:29:00,
2013-01-18 15:45:00,50.0,34.0,29.85,SW,225,3.7,-999.0,54,-99.99,,,0.00,Acu-Link.com,2013-01-18 21:45:00,
2013-01-18 16:00:00,50.0,34.0,29.85,SW,225,3.2,-999.0,54,-99.99,,,0.00,Acu-Link.com,2013-01-18 22:00:00,
2013-01-18 16:15:00,50.0,34.5,29.86,South,180,5.8,-999.0,55,-99.99,,,0.00,Acu-Link.com,2013-01-18 22:15:00,
2013-01-18 16:31:00,48.7,34.6,29.86,SSW,202,8.9,-999.0,58,-99.99,,,0.00,Acu-Link.com,2013-01-18 22:31:00,
2013-01-18 16:46:00,47.5,34.7,29.87,West,270,4.2,-999.0,61,-99.99,,,0.00,Acu-Link.com,2013-01-18 22:46:00,
2013-01-18 17:01:00,45.1,34.0,29.86,SSW,202,2.7,-999.0,65,-99.99,,,0.00,Acu-Link.com,2013-01-18 23:01:00,
2013-01-18 17:17:00,43.2,33.7,29.86,South,180,3.2,-999.0,69,-99.99,,,0.00,Acu-Link.com,2013-01-18 23:17:00,
2013-01-18 17:32:00,41.5,32.8,29.87,South,180,3.7,-999.0,71,-99.99,,,0.00,Acu-Link.com,2013-01-18 23:32:00,
2013-01-18 17:47:00,40.8,32.5,29.86,West,270,2.7,-999.0,72,-99.99,,,0.00,Acu-Link.com,2013-01-18 23:47:00,
2013-01-18 18:02:00,40.1,32.2,29.87,SSW,202,2.7,-999.0,73,-99.99,,,0.00,Acu-Link.com,2013-01-19 00:02:00,
2013-01-18 18:18:00,40.1,32.2,29.87,SW,225,4.2,-999.0,73,-99.99,,,0.00,Acu-Link.com,2013-01-19 00:18:00,
2013-01-18 18:33:00,39.6,31.7,29.87,SSW,202,6.8,-999.0,73,-99.99,,,0.00,Acu-Link.com,2013-01-19 00:33:00,
2013-01-18 18:48:00,39.0,31.1,29.88,South,180,5.3,-999.0,73,-99.99,,,0.00,Acu-Link.com,2013-01-19 00:48:00,
2013-01-18 19:04:00,38.5,30.6,29.87,SSW,202,3.7,-999.0,73,-99.99,,,0.00,Acu-Link.com,2013-01-19 01:04:00,
2013-01-18 19:19:00,37.8,30.3,29.87,SW,225,4.7,-999.0,74,-99.99,,,0.00,Acu-Link.com,2013-01-19 01:19:00,
2013-01-18 19:34:00,37.2,30.0,29.86,South,180,2.7,-999.0,75,-99.99,,,0.00,Acu-Link.com,2013-01-19 01:34:00,
2013-01-18 19:50:00,36.7,29.9,29.86,SW,225,2.7,-999.0,76,-99.99,,,0.00,Acu-Link.com,2013-01-19 01:50:00,
2013-01-18 20:05:00,36.5,30.0,29.86,SW,225,0.0,-999.0,77,-99.99,,,0.00,Acu-Link.com,2013-01-19 02:05:00,
2013-01-18 20:20:00,36.3,29.8,29.85,West,270,4.7,-999.0,77,-99.99,,,0.00,Acu-Link.com,2013-01-19 02:20:00,
2013-01-18 20:36:00,36.3,29.8,29.85,SSW,202,2.7,-999.0,77,-99.99,,,0.00,Acu-Link.com,2013-01-19 02:36:00,
2013-01-18 20:51:00,36.5,30.0,29.84,SW,225,4.2,-999.0,77,-99.99,,,0.00,Acu-Link.com,2013-01-19 02:51:00,
2013-01-18 21:06:00,37.2,30.0,29.85,SW,225,4.7,-999.0,75,-99.99,,,0.00,Acu-Link.com,2013-01-19 03:06:00,
2013-01-18 21:22:00,36.3,29.5,29.86,West,270,2.2,-999.0,76,-99.99,,,0.00,Acu-Link.com,2013-01-19 03:22:00,
2013-01-18 21:37:00,35.2,29.0,29.85,SSW,202,2.7,-999.0,78,-99.99,,,0.00,Acu-Link.com,2013-01-19 03:37:00,
2013-01-18 21:52:00,34.2,28.7,29.86,West,270,1.7,-999.0,80,-99.99,,,0.00,Acu-Link.com,2013-01-19 03:52:00,
2013-01-18 22:08:00,33.6,28.4,29.84,WSW,247,2.7,-999.0,81,-99.99,,,0.00,Acu-Link.com,2013-01-19 04:08:00,
2013-01-18 22:23:00,33.1,27.9,29.84,SSW,202,2.2,-999.0,81,-99.99,,,0.00,Acu-Link.com,2013-01-19 04:23:00,
2013-01-18 22:38:00,32.5,27.6,29.84,West,270,3.2,-999.0,82,-99.99,,,0.00,Acu-Link.com,2013-01-19 04:38:00,
2013-01-18 22:54:00,32.7,27.8,29.84,West,270,2.2,-999.0,82,-99.99,,,0.00,Acu-Link.com,2013-01-19 04:54:00,
2013-01-18 23:09:00,33.4,28.2,29.84,West,270,2.2,-999.0,81,-99.99,,,0.00,Acu-Link.com,2013-01-19 05:09:00,
2013-01-18 23:24:00,32.9,27.7,29.83,SW,225,1.1,-999.0,81,-99.99,,,0.00,Acu-Link.com,2013-01-19 05:24:00,
2013-01-18 23:39:00,32.7,27.5,29.83,West,270,3.2,-999.0,81,-99.99,,,0.00,Acu-Link.com,2013-01-19 05:39:00,
2013-01-18 23:55:00,32.5,27.3,29.83,SSW,202,2.7,-999.0,81,-99.99,,,0.00,Acu-Link.com,2013-01-19 05:55:00,